Time;durP1;ratioP1;P1;durP2;ratioP2;P2;SDS_P1;SDS_P2;PMS_P1;PMS_P2;Temp;Humidity;BMP_temperature;BMP_pressure;BME280_temperature;BME280_humidity;BME280_pressure;Samples;Min_cycle;Max_cycle;Signal;HPM_P1;HPM_P2
2022/03/05 00:00:21;;;;;;;6.32;3.70;;;;;;;0.61;54.60;99108.25;4894315;29;20080;-72
2022/03/05 00:02:46;;;;;;;7.00;3.38;;;;;;;0.61;55.25;99112.63;4895602;29;20377;-77
2022/03/05 00:05:12;;;;;;;7.22;3.60;;;;;;;0.64;55.16;99110.75;4864268;29;20055;-71
2022/03/05 00:07:37;;;;;;;8.27;3.67;;;;;;;0.65;55.17;99103.75;4862686;29;20055;-73
2022/03/05 00:10:03;;;;;;;5.63;3.65;;;;;;;0.67;55.25;99105.41;4865866;29;20052;-72
2022/03/05 00:12:28;;;;;;;5.68;3.80;;;;;;;0.67;55.68;99102.78;4863809;29;20052;-78
2022/03/05 00:14:53;;;;;;;6.13;3.70;;;;;;;0.70;55.45;99102.63;4866068;29;20044;-70
2022/03/05 00:17:18;;;;;;;6.30;4.03;;;;;;;0.71;55.78;99104.34;4865738;29;20051;-73
2022/03/05 00:19:43;;;;;;;5.22;3.30;;;;;;;0.72;55.84;99105.19;4896981;29;20152;-71
2022/03/05 00:22:07;;;;;;;7.03;3.55;;;;;;;0.72;56.10;99094.69;4907100;29;20126;-74
2022/03/05 00:24:32;;;;;;;6.68;3.90;;;;;;;0.72;56.49;99094.69;4884538;29;20052;-73
2022/03/05 00:26:57;;;;;;;7.78;3.70;;;;;;;0.76;55.99;99101.53;4882483;29;20052;-72
2022/03/05 00:29:25;;;;;;;5.03;2.95;;;;;;;0.73;56.49;99097.25;4880957;29;20052;-73
2022/03/05 00:31:49;;;;;;;4.93;3.25;;;;;;;0.72;56.93;99102.56;4880997;29;20054;-73
2022/03/05 00:34:14;;;;;;;5.75;3.58;;;;;;;0.70;57.02;99101.78;4881141;29;20044;-74
2022/03/05 00:36:39;;;;;;;5.38;3.38;;;;;;;0.72;56.78;99100.81;4881646;29;20058;-73
2022/03/05 00:39:05;;;;;;;4.78;3.17;;;;;;;0.73;56.87;99093.78;4881570;29;20047;-74
2022/03/05 00:41:30;;;;;;;5.20;3.60;;;;;;;0.71;57.17;99093.84;4881252;29;20096;-72
2022/03/05 00:43:57;;;;;;;5.75;3.67;;;;;;;0.75;57.24;99093.72;4881523;29;20124;-78
2022/03/05 00:46:22;;;;;;;6.78;3.40;;;;;;;0.74;56.99;99100.75;4881009;29;20047;-76
2022/03/05 00:48:46;;;;;;;8.32;4.07;;;;;;;0.74;57.39;99092.88;4881321;29;20140;-77
2022/03/05 00:51:11;;;;;;;8.32;4.80;;;;;;;0.75;57.44;99097.22;4882262;29;20059;-68
2022/03/05 00:53:36;;;;;;;5.22;3.35;;;;;;;0.77;57.27;99108.50;4881699;29;20054;-73
2022/03/05 00:56:01;;;;;;;6.25;3.38;;;;;;;0.75;57.74;99115.56;4881608;29;20052;-68
2022/03/05 00:58:26;;;;;;;5.53;3.40;;;;;;;0.73;57.86;99107.75;4881309;29;20098;-68
2022/03/05 01:00:52;;;;;;;4.05;2.90;;;;;;;0.77;57.72;99105.88;4879559;29;20108;-66
2022/03/05 01:03:17;;;;;;;5.18;3.00;;;;;;;0.73;57.54;99099.88;4880999;29;20479;-68
2022/03/05 01:05:42;;;;;;;6.70;2.95;;;;;;;0.74;58.13;99113.84;4881305;29;20419;-65
2022/03/05 01:08:06;;;;;;;6.18;3.33;;;;;;;0.71;57.90;99108.72;4881143;29;20522;-70
2022/03/05 01:10:31;;;;;;;4.80;2.83;;;;;;;0.67;58.30;99115.88;4881136;29;20052;-69
2022/03/05 01:12:56;;;;;;;6.38;3.35;;;;;;;0.67;58.40;99110.66;4881296;29;20038;-71
2022/03/05 01:15:22;;;;;;;5.97;3.05;;;;;;;0.67;58.08;99109.78;4879739;29;20056;-69
2022/03/05 01:17:47;;;;;;;3.80;2.70;;;;;;;0.63;58.84;99113.44;4881068;29;20102;-67
2022/03/05 01:20:11;;;;;;;5.95;2.88;;;;;;;0.63;58.55;99113.44;4881228;29;20131;-72
2022/03/05 01:22:36;;;;;;;5.90;3.28;;;;;;;0.60;58.85;99105.69;4881053;29;20044;-72
2022/03/05 01:25:01;;;;;;;6.85;3.22;;;;;;;0.58;58.72;99110.97;4880929;29;20538;-71
2022/03/05 01:27:25;;;;;;;5.28;3.40;;;;;;;0.58;58.73;99104.88;4879632;29;20083;-73
2022/03/05 01:29:50;;;;;;;4.35;2.50;;;;;;;0.59;58.78;99101.34;4879688;29;20066;-72
2022/03/05 01:32:15;;;;;;;3.50;2.03;;;;;;;0.57;59.01;99108.41;4880200;29;20078;-73
2022/03/05 01:34:40;;;;;;;4.10;3.25;;;;;;;0.57;58.62;99100.53;4881571;29;20048;-74
2022/03/05 01:37:05;;;;;;;4.50;2.40;;;;;;;0.57;58.91;99105.78;4880967;29;20040;-72
2022/03/05 01:39:30;;;;;;;6.90;4.00;;;;;;;0.61;58.10;99099.53;4881515;29;20051;-70
2022/03/05 01:41:55;;;;;;;5.90;2.67;;;;;;;0.56;58.57;99104.13;4879877;29;20083;-76
2022/03/05 01:44:21;;;;;;;3.45;2.17;;;;;;;0.54;58.91;99098.06;4879803;29;20043;-64
2022/03/05 01:46:45;;;;;;;3.92;2.25;;;;;;;0.51;58.20;99101.66;4881121;29;20049;-64
2022/03/05 01:49:12;;;;;;;4.18;2.38;;;;;;;0.49;57.71;99108.72;4880697;29;20108;-63
2022/03/05 01:51:38;;;;;;;2.90;1.75;;;;;;;0.46;57.55;99100.97;4880363;29;20052;-64
2022/03/05 01:54:04;;;;;;;4.07;2.22;;;;;;;0.44;56.87;99107.22;4879136;29;20051;-64
2022/03/05 01:56:30;;;;;;;2.85;1.73;;;;;;;0.39;57.03;99107.38;4877842;29;20566;-64
2022/03/05 01:58:55;;;;;;;3.85;2.05;;;;;;;0.33;57.00;99108.50;4879180;29;20529;-64
2022/03/05 02:01:22;;;;;;;3.33;1.85;;;;;;;0.31;57.46;99112.94;4879328;29;20095;-65
2022/03/05 02:03:47;;;;;;;3.38;2.35;;;;;;;0.34;57.43;99110.16;4879064;29;20064;-64
2022/03/05 02:06:11;;;;;;;2.63;1.63;;;;;;;0.34;57.76;99109.31;4879184;29;20047;-64
2022/03/05 02:08:36;;;;;;;4.18;2.05;;;;;;;0.33;57.79;99111.13;4879047;29;20096;-65
2022/03/05 02:11:01;;;;;;;2.80;2.00;;;;;;;0.36;57.66;99110.13;4878767;29;20051;-66
2022/03/05 02:13:27;;;;;;;4.72;1.83;;;;;;;0.39;58.16;99107.38;4880244;29;20039;-66
2022/03/05 02:15:56;;;;;;;3.40;2.53;;;;;;;0.42;58.00;99109.91;4880673;29;20052;-65
2022/03/05 02:18:21;;;;;;;3.05;2.33;;;;;;;0.40;57.94;99113.47;4880250;29;20543;-63
2022/03/05 02:20:45;;;;;;;2.45;1.83;;;;;;;0.40;58.33;99116.97;4878496;29;20554;-63
2022/03/05 02:23:10;;;;;;;3.72;2.03;;;;;;;0.42;58.13;99112.50;4879970;29;20090;-63
2022/03/05 02:25:35;;;;;;;3.05;2.20;;;;;;;0.45;58.10;99109.78;4879605;29;20060;-64
2022/03/05 02:28:02;;;;;;;1.92;1.52;;;;;;;0.47;58.31;99112.31;4878383;29;20040;-71
2022/03/05 02:30:26;;;;;;;3.53;2.47;;;;;;;0.51;58.04;99109.53;4878119;29;20533;-72
2022/03/05 02:32:51;;;;;;;2.78;1.95;;;;;;;0.54;58.00;99111.19;4879001;29;20507;-65
2022/03/05 02:35:16;;;;;;;3.13;1.80;;;;;;;0.54;58.12;99116.44;4878148;29;20056;-65
2022/03/05 02:37:40;;;;;;;4.05;2.45;;;;;;;0.54;58.26;99119.06;4879426;29;20044;-71
2022/03/05 02:40:06;;;;;;;2.33;1.92;;;;;;;0.56;57.75;99117.22;4880078;29;20063;-73
2022/03/05 02:42:31;;;;;;;1.70;1.60;;;;;;;0.59;57.83;99111.84;4880515;29;20135;-65
2022/03/05 02:44:56;;;;;;;2.00;1.80;;;;;;;0.58;57.53;99115.38;4880063;29;20051;-67
2022/03/05 02:47:20;;;;;;;2.25;1.80;;;;;;;0.60;57.43;99113.53;4880047;29;20055;-65
2022/03/05 02:49:46;;;;;;;7.20;2.97;;;;;;;0.58;57.48;99113.59;4880089;29;20220;-66
2022/03/05 02:52:11;;;;;;;2.00;1.48;;;;;;;0.58;57.40;99115.38;4879916;29;20135;-66
2022/03/05 02:54:35;;;;;;;4.90;2.08;;;;;;;0.58;57.00;99120.63;4879814;29;20100;-67
2022/03/05 02:57:00;;;;;;;3.65;2.20;;;;;;;0.58;57.44;99118.00;4878740;29;20103;-65
2022/03/05 02:59:25;;;;;;;1.95;1.40;;;;;;;0.54;57.06;99119.91;4878654;29;20135;-70
2022/03/05 03:01:49;;;;;;;4.80;1.90;;;;;;;0.55;57.11;99118.13;4879911;29;20047;-64
2022/03/05 03:04:14;;;;;;;1.83;1.40;;;;;;;0.53;57.04;99112.94;4868227;29;20586;-65
2022/03/05 03:06:39;;;;;;;1.17;1.08;;;;;;;0.54;56.97;99116.44;4860707;29;20041;-66
2022/03/05 03:09:04;;;;;;;1.63;1.35;;;;;;;0.50;56.85;99120.94;4859574;29;20543;-68
2022/03/05 03:11:28;;;;;;;2.75;1.38;;;;;;;0.50;56.60;99131.41;4861053;29;20514;-67
2022/03/05 03:13:53;;;;;;;1.85;1.15;;;;;;;0.51;56.02;99106.91;4858473;29;20499;-66
2022/03/05 03:16:18;;;;;;;6.40;1.42;;;;;;;0.51;55.72;99125.25;4860567;29;20053;-66
2022/03/05 03:18:43;;;;;;;10.50;1.75;;;;;;;0.50;55.35;99133.19;4860659;29;20052;-67
2022/03/05 03:21:08;;;;;;;1.67;0.98;;;;;;;0.44;55.21;99126.44;4860941;29;20130;-68
2022/03/05 03:23:33;;;;;;;2.22;1.02;;;;;;;0.41;54.96;99126.53;4859449;29;20055;-67
2022/03/05 03:25:58;;;;;;;5.25;1.23;;;;;;;0.43;54.73;99121.25;4860671;29;20068;-67
2022/03/05 03:28:23;;;;;;;1.77;1.10;;;;;;;0.40;54.62;99121.34;4860203;29;20093;-67
2022/03/05 03:30:47;;;;;;;1.40;1.15;;;;;;;0.34;55.01;99131.16;4861443;29;20120;-66
2022/03/05 03:33:12;;;;;;;2.80;2.08;;;;;;;0.33;54.95;99139.94;4861229;29;20055;-67
2022/03/05 03:35:37;;;;;;;2.60;1.42;;;;;;;0.38;55.71;99128.41;4859472;29;20164;-68
2022/03/05 03:38:02;;;;;;;2.05;1.42;;;;;;;0.35;56.67;99148.59;4860799;29;20119;-67
2022/03/05 03:40:27;;;;;;;2.45;1.98;;;;;;;0.36;56.73;99145.06;4860678;29;20051;-68
2022/03/05 03:42:52;;;;;;;3.63;1.98;;;;;;;0.38;56.78;99137.13;4860799;29;20045;-67
2022/03/05 03:45:17;;;;;;;5.97;2.55;;;;;;;0.36;57.34;99149.44;4860774;29;20060;-67
2022/03/05 03:47:46;;;;;;;3.78;2.10;;;;;;;0.31;57.69;99156.66;4864125;29;20519;-67
2022/03/05 03:50:13;;;;;;;2.65;2.03;;;;;;;0.24;58.10;99149.91;4864189;29;20045;-67
2022/03/05 03:52:38;;;;;;;5.97;2.88;;;;;;;0.22;58.45;99163.09;4863821;29;20060;-67
2022/03/05 03:55:06;;;;;;;4.40;2.25;;;;;;;0.23;58.71;99159.53;4863667;29;20051;-68
2022/03/05 03:57:31;;;;;;;2.80;2.15;;;;;;;0.23;58.56;99159.53;4846887;29;20048;-67
2022/03/05 03:59:55;;;;;;;2.25;1.63;;;;;;;0.18;58.94;99161.50;4863405;29;20048;-66
2022/03/05 04:02:21;;;;;;;3.20;2.15;;;;;;;0.18;58.91;99173.75;4863696;29;20105;-67
2022/03/05 04:04:47;;;;;;;3.97;2.13;;;;;;;0.22;58.51;99173.59;4863742;29;20464;-66
2022/03/05 04:09:55;;;;;;;1.83;1.23;;;;;;;0.20;57.80;99164.91;4863686;29;20048;-67
2022/03/05 04:12:21;;;;;;;6.32;2.50;;;;;;;0.17;57.66;99185.13;4863426;29;20058;-67
2022/03/05 04:14:46;;;;;;;1.85;1.70;;;;;;;0.13;57.75;99180.91;4863432;29;20139;-67
2022/03/05 04:17:10;;;;;;;7.07;1.98;;;;;;;0.09;57.52;99188.03;4863332;29;20135;-67
2022/03/05 04:19:35;;;;;;;3.33;1.77;;;;;;;0.10;57.77;99183.66;4863278;29;20389;-66
2022/03/05 04:22:00;;;;;;;3.67;2.63;;;;;;;0.08;57.51;99185.47;4863354;29;20056;-68
2022/03/05 04:24:26;;;;;;;2.10;1.63;;;;;;;0.06;57.46;99192.53;4863326;29;20067;-69
2022/03/05 04:26:50;;;;;;;5.10;2.65;;;;;;;0.02;57.73;99178.66;4863477;29;20048;-68
2022/03/05 04:29:15;;;;;;;2.33;1.40;;;;;;;0.02;57.74;99191.78;4861780;29;20056;-67
2022/03/05 04:31:40;;;;;;;3.33;1.98;;;;;;;0.10;57.12;99191.53;4861825;29;20048;-67
2022/03/05 04:34:05;;;;;;;2.80;1.60;;;;;;;0.09;56.44;99195.91;4863406;29;20119;-67
2022/03/05 04:36:30;;;;;;;1.60;1.40;;;;;;;0.07;56.05;99205.59;4863467;29;20054;-67
2022/03/05 04:38:54;;;;;;;4.38;1.55;;;;;;;0.06;56.37;99210.88;4863143;29;20500;-67
2022/03/05 04:41:19;;;;;;;2.45;1.83;;;;;;;0.00;56.29;99201.47;4863287;29;20053;-67
2022/03/05 04:43:44;;;;;;;2.58;1.73;;;;;;;-0.04;55.86;99220.84;4863250;29;20448;-68
2022/03/05 04:46:08;;;;;;;4.47;1.55;;;;;;;-0.09;56.26;99210.50;4865019;29;20083;-68
2022/03/05 04:48:33;;;;;;;10.77;6.13;;;;;;;-0.15;56.18;99215.13;4866645;29;20064;-69
2022/03/05 04:50:58;;;;;;;6.72;2.70;;;;;;;-0.18;56.40;99216.06;4863443;29;20131;-67
2022/03/05 04:53:22;;;;;;;1.65;1.25;;;;;;;-0.12;56.43;99218.50;4863547;29;20052;-67
2022/03/05 04:55:50;;;;;;;4.78;1.75;;;;;;;-0.13;56.65;99223.78;4862928;29;20048;-67
2022/03/05 04:58:16;;;;;;;1.85;1.35;;;;;;;-0.19;56.87;99216.97;4876561;29;20040;-68
2022/03/05 05:00:41;;;;;;;5.40;1.85;;;;;;;-0.18;57.00;99230.94;4877794;29;20456;-69
2022/03/05 05:03:05;;;;;;;4.93;1.98;;;;;;;-0.19;56.67;99229.22;4862948;29;20043;-69
2022/03/05 05:05:30;;;;;;;1.73;1.58;;;;;;;-0.14;56.95;99237.78;4862864;29;20095;-70
2022/03/05 05:07:55;;;;;;;2.60;1.83;;;;;;;-0.10;56.48;99229.75;4862744;29;20044;-68
2022/03/05 05:10:20;;;;;;;2.65;1.67;;;;;;;-0.10;56.66;99228.88;4861738;29;20139;-70
2022/03/05 05:12:45;;;;;;;3.78;2.00;;;;;;;-0.07;56.25;99229.66;4877223;29;20135;-70
2022/03/05 05:15:09;;;;;;;1.40;1.30;;;;;;;-0.08;56.46;99234.94;4863102;29;20052;-69
2022/03/05 05:17:38;;;;;;;3.53;1.90;;;;;;;-0.09;56.25;99235.84;4863038;29;20414;-69
2022/03/05 05:20:05;;;;;;;3.35;1.92;;;;;;;-0.05;56.18;99230.44;4862552;29;20500;-69
2022/03/05 05:22:31;;;;;;;2.95;2.17;;;;;;;-0.08;56.06;99241.03;4864727;29;20068;-69
2022/03/05 05:24:55;;;;;;;4.47;1.98;;;;;;;-0.05;55.81;99238.31;4865004;29;20071;-68
2022/03/05 05:27:21;;;;;;;3.58;1.98;;;;;;;-0.06;55.26;99238.38;4864528;29;20051;-68
2022/03/05 05:29:46;;;;;;;1.83;1.70;;;;;;;-0.09;55.42;99246.31;4866840;29;20096;-71
2022/03/05 05:32:12;;;;;;;2.42;2.05;;;;;;;-0.11;55.17;99238.50;4870608;29;20052;-69
2022/03/05 05:34:36;;;;;;;2.53;1.77;;;;;;;-0.14;55.53;99243.03;4871750;29;20025;-68
2022/03/05 05:37:01;;;;;;;3.85;2.28;;;;;;;-0.17;55.71;99243.97;4870756;29;20043;-68
2022/03/05 05:39:26;;;;;;;3.75;2.38;;;;;;;-0.12;55.83;99246.44;4871530;29;20397;-68
2022/03/05 05:41:51;;;;;;;3.45;1.77;;;;;;;-0.07;55.37;99244.50;4871705;29;20522;-68
2022/03/05 05:44:15;;;;;;;3.47;2.10;;;;;;;-0.03;55.69;99246.13;4868281;29;20053;-68
2022/03/05 05:46:40;;;;;;;3.10;2.00;;;;;;;-0.02;55.82;99238.22;4866586;29;20055;-68
2022/03/05 05:49:05;;;;;;;6.13;1.73;;;;;;;-0.06;55.68;99248.84;4865836;29;20056;-68
2022/03/05 05:51:30;;;;;;;3.85;2.17;;;;;;;-0.09;56.13;99249.81;4865960;29;20056;-68
2022/03/05 05:53:56;;;;;;;3.28;2.20;;;;;;;-0.13;56.10;99265.69;4861959;29;20056;-68
2022/03/05 05:56:21;;;;;;;4.82;2.03;;;;;;;-0.13;56.27;99255.22;4861766;29;20040;-68
2022/03/05 05:58:48;;;;;;;3.97;2.10;;;;;;;-0.07;56.36;99255.00;4862252;29;20583;-68
2022/03/05 06:01:16;;;;;;;8.05;2.17;;;;;;;-0.04;56.00;99257.50;4860779;29;20096;-69
2022/03/05 06:03:44;;;;;;;2.90;2.05;;;;;;;-0.02;56.23;99259.19;4861555;29;20504;-69
2022/03/05 06:06:09;;;;;;;3.92;2.13;;;;;;;0.03;56.17;99261.63;4861805;29;20047;-68
2022/03/05 06:08:34;;;;;;;4.65;2.38;;;;;;;0.07;55.80;99258.00;4861734;29;20044;-68
2022/03/05 06:10:59;;;;;;;2.85;2.15;;;;;;;0.12;56.60;99263.91;4860224;29;20052;-69
2022/03/05 06:13:24;;;;;;;5.35;2.13;;;;;;;0.22;55.81;99261.84;4861376;29;20044;-70
2022/03/05 06:15:51;;;;;;;3.00;2.08;;;;;;;0.35;55.56;99257.84;4860157;29;20405;-69
2022/03/05 06:18:17;;;;;;;9.48;2.60;;;;;;;0.43;55.58;99252.34;4860436;29;20559;-69
2022/03/05 06:21:08;;;;;;;3.60;2.35;;;;;;;0.46;55.42;99266.19;4861844;29;20044;-69
2022/03/05 06:23:34;;;;;;;11.30;3.47;;;;;;;0.50;55.19;99253.81;4861387;29;20044;-69
2022/03/05 06:25:59;;;;;;;6.93;2.92;;;;;;;0.43;55.32;99268.94;4862133;29;20064;-69
2022/03/05 06:28:24;;;;;;;1.98;1.45;;;;;;;0.43;54.98;99262.84;4862844;29;20461;-70
2022/03/05 06:30:49;;;;;;;4.20;2.85;;;;;;;0.45;54.95;99259.25;4877054;29;20433;-68
2022/03/05 06:33:14;;;;;;;5.53;2.08;;;;;;;0.37;55.29;99271.75;4861665;29;20052;-69
2022/03/05 06:35:39;;;;;;;4.15;2.50;;;;;;;0.36;54.96;99276.16;4859889;29;20060;-68
2022/03/05 06:38:04;;;;;;;3.53;2.45;;;;;;;0.57;55.42;99266.63;4861048;29;20050;-70
2022/03/05 06:40:28;;;;;;;4.30;2.13;;;;;;;0.90;54.54;99261.06;4860882;29;20052;-69
2022/03/05 06:42:55;;;;;;;3.53;2.38;;;;;;;1.12;53.77;99269.81;4861263;29;20064;-70
2022/03/05 06:45:19;;;;;;;4.28;2.22;;;;;;;1.19;53.25;99268.66;4861303;29;20473;-69
2022/03/05 06:47:44;;;;;;;4.63;2.65;;;;;;;1.14;53.56;99275.81;4859985;29;20041;-69
2022/03/05 06:50:11;;;;;;;6.28;2.50;;;;;;;1.13;53.63;99278.53;4861171;29;20044;-72
2022/03/05 06:52:35;;;;;;;6.90;3.33;;;;;;;1.21;53.31;99276.47;4859970;29;20045;-70
2022/03/05 06:55:01;;;;;;;6.68;2.72;;;;;;;1.36;53.29;99274.06;4861309;29;20108;-70
2022/03/05 06:57:26;;;;;;;3.38;2.60;;;;;;;1.43;52.85;99282.56;4870797;29;20056;-70
2022/03/05 06:59:51;;;;;;;5.72;3.30;;;;;;;1.44;52.96;99281.66;4871605;29;20500;-69
2022/03/05 07:02:16;;;;;;;7.25;3.63;;;;;;;1.47;52.92;99288.56;4872259;29;20044;-71
2022/03/05 07:04:41;;;;;;;4.95;2.90;;;;;;;1.51;52.76;99284.88;4863027;29;20404;-68
2022/03/05 07:07:06;;;;;;;4.65;2.35;;;;;;;1.52;52.42;99279.56;4860256;29;20444;-70
2022/03/05 07:09:30;;;;;;;4.90;2.40;;;;;;;1.46;52.19;99298.22;4860770;29;20138;-70
2022/03/05 07:11:55;;;;;;;6.97;2.72;;;;;;;1.29;52.92;99291.00;4862749;29;20050;-68
2022/03/05 07:14:20;;;;;;;5.47;3.45;;;;;;;1.30;53.28;99292.72;4859808;29;20492;-68
2022/03/05 07:16:44;;;;;;;3.38;2.95;;;;;;;1.45;52.55;99291.25;4872918;29;20527;-69
2022/03/05 07:19:09;;;;;;;9.90;3.20;;;;;;;2.01;52.07;99286.28;4878991;29;20044;-69
2022/03/05 07:21:34;;;;;;;4.90;2.55;;;;;;;2.59;50.80;99282.88;4877936;29;20054;-69
2022/03/05 07:23:59;;;;;;;4.28;2.60;;;;;;;3.08;49.62;99271.78;4882593;29;20040;-70
2022/03/05 07:26:23;;;;;;;4.15;3.08;;;;;;;3.48;48.18;99280.44;4883057;29;20059;-68
2022/03/05 07:28:50;;;;;;;6.28;2.70;;;;;;;4.64;46.52;99280.66;4881593;29;20055;-68
2022/03/05 07:31:14;;;;;;;5.18;2.97;;;;;;;5.68;43.94;99263.38;4876134;29;20063;-69
2022/03/05 07:33:39;;;;;;;3.97;2.28;;;;;;;6.00;42.94;99273.91;4879381;29;20051;-68
2022/03/05 07:36:04;;;;;;;8.52;3.33;;;;;;;6.37;42.27;99272.59;4868178;29;20559;-69
2022/03/05 07:38:29;;;;;;;6.30;2.60;;;;;;;6.59;41.53;99264.19;4880802;29;20072;-65
2022/03/05 07:40:54;;;;;;;7.38;3.17;;;;;;;6.52;41.72;99263.72;4883481;29;20075;-66
2022/03/05 07:43:18;;;;;;;3.42;2.85;;;;;;;6.22;42.21;99268.19;4881408;29;20044;-69
2022/03/05 07:45:43;;;;;;;9.13;3.50;;;;;;;6.07;42.28;99269.97;4862766;29;20040;-69
2022/03/05 07:48:08;;;;;;;7.32;3.38;;;;;;;5.96;42.44;99275.91;4864510;29;20048;-69
2022/03/05 07:50:33;;;;;;;4.72;3.33;;;;;;;5.62;43.02;99273.47;4875676;29;20503;-69
2022/03/05 07:52:57;;;;;;;4.95;3.15;;;;;;;5.14;43.47;99272.63;4881980;29;20055;-69
2022/03/05 07:55:22;;;;;;;8.02;3.50;;;;;;;4.87;44.30;99276.78;4882092;29;20052;-67
2022/03/05 07:57:47;;;;;;;6.07;3.10;;;;;;;4.84;43.88;99267.25;4882014;29;20103;-68
2022/03/05 08:00:12;;;;;;;8.48;3.60;;;;;;;5.96;43.85;99275.06;4881552;29;20127;-68
2022/03/05 08:02:37;;;;;;;10.68;3.97;;;;;;;7.75;40.52;99258.50;4874625;29;20478;-67
2022/03/05 08:05:02;;;;;;;5.28;3.10;;;;;;;9.14;38.14;99262.22;4873421;29;20080;-69
2022/03/05 08:07:27;;;;;;;5.10;2.90;;;;;;;9.06;36.80;99257.41;4881543;29;20134;-69
2022/03/05 08:09:52;;;;;;;6.60;3.53;;;;;;;8.16;37.20;99273.44;4881028;29;20134;-68
2022/03/05 08:12:17;;;;;;;4.70;2.70;;;;;;;7.10;38.92;99271.56;4881566;29;20091;-69
2022/03/05 08:14:44;;;;;;;6.38;4.22;;;;;;;6.10;40.36;99283.84;4880335;29;20055;-69
2022/03/05 08:17:09;;;;;;;7.95;2.90;;;;;;;5.43;41.86;99277.13;4881606;29;20040;-69
2022/03/05 08:19:34;;;;;;;8.40;3.38;;;;;;;4.93;43.10;99287.03;4871336;29;20047;-69
2022/03/05 08:21:59;;;;;;;7.60;3.40;;;;;;;4.68;43.41;99295.41;4896187;29;20689;-69
2022/03/05 08:24:23;;;;;;;5.15;3.00;;;;;;;4.90;43.08;99289.81;4881664;29;20075;-69
2022/03/05 08:26:48;;;;;;;4.78;2.83;;;;;;;5.08;42.14;99291.44;4873213;29;20103;-69
2022/03/05 08:29:13;;;;;;;4.28;2.60;;;;;;;4.92;41.95;99293.25;4862770;29;20044;-68
2022/03/05 08:31:38;;;;;;;7.20;3.03;;;;;;;4.56;41.65;99299.53;4862087;29;20106;-69
2022/03/05 08:34:03;;;;;;;5.68;2.17;;;;;;;4.12;42.43;99293.06;4861452;29;20130;-71
2022/03/05 08:36:29;;;;;;;5.38;2.50;;;;;;;3.72;42.86;99305.63;4879505;29;20479;-68
2022/03/05 08:38:54;;;;;;;6.22;2.67;;;;;;;3.42;43.48;99307.06;4880712;29;20048;-68
2022/03/05 08:41:19;;;;;;;5.22;2.67;;;;;;;3.11;43.88;99299.78;4881295;29;20051;-67
2022/03/05 08:43:44;;;;;;;4.65;2.20;;;;;;;2.81;44.28;99305.53;4861837;29;20048;-68
2022/03/05 08:46:09;;;;;;;11.52;3.42;;;;;;;2.59;44.80;99298.69;4862978;29;20051;-67
2022/03/05 08:48:34;;;;;;;2.58;2.05;;;;;;;2.42;45.85;99308.16;4880790;29;20130;-66
2022/03/05 08:50:59;;;;;;;8.77;3.00;;;;;;;2.32;45.71;99306.00;4879873;29;20130;-68
2022/03/05 08:53:24;;;;;;;12.27;4.47;;;;;;;2.19;46.16;99313.56;4881373;29;20387;-66
2022/03/05 08:55:48;;;;;;;14.23;3.30;;;;;;;1.98;46.45;99304.81;4870400;29;20048;-67
2022/03/05 08:58:13;;;;;;;5.75;2.63;;;;;;;1.91;47.01;99307.75;4862840;29;20054;-66
2022/03/05 09:00:38;;;;;;;8.70;3.42;;;;;;;1.93;46.75;99311.16;4874902;29;20048;-67
2022/03/05 09:03:03;;;;;;;3.42;2.13;;;;;;;1.88;47.25;99311.38;4869998;29;20119;-66
2022/03/05 09:05:28;;;;;;;4.20;2.47;;;;;;;1.88;46.93;99315.75;4881404;29;20414;-66
2022/03/05 09:07:52;;;;;;;5.93;2.53;;;;;;;2.05;46.34;99313.28;4881337;29;20051;-66
2022/03/05 09:10:18;;;;;;;5.03;2.58;;;;;;;2.03;46.83;99315.97;4851492;29;20516;-67
2022/03/05 09:12:43;;;;;;;6.47;3.00;;;;;;;2.00;46.95;99315.25;4878952;29;20055;-65
2022/03/05 09:15:08;;;;;;;5.75;2.85;;;;;;;1.94;46.57;99316.34;4880207;29;20039;-66
2022/03/05 09:17:32;;;;;;;9.48;2.38;;;;;;;1.89;46.81;99315.72;4880955;29;20052;-67
2022/03/05 09:19:58;;;;;;;7.15;2.95;;;;;;;1.82;47.12;99327.38;4870930;29;20051;-66
2022/03/05 09:22:23;;;;;;;4.45;2.67;;;;;;;1.82;47.49;99332.63;4862426;29;20192;-68
2022/03/05 09:24:48;;;;;;;2.95;2.38;;;;;;;1.92;47.00;99328.69;4866070;29;20146;-68
2022/03/05 09:27:13;;;;;;;5.97;2.60;;;;;;;1.96;46.90;99345.22;4875645;29;20115;-66
2022/03/05 09:29:37;;;;;;;2.65;2.15;;;;;;;1.97;46.91;99336.41;4864134;29;20052;-69
2022/03/05 09:32:03;;;;;;;4.50;2.58;;;;;;;1.98;47.08;99333.72;4867343;29;20044;-70
2022/03/05 09:34:27;;;;;;;6.40;2.55;;;;;;;2.06;47.23;99330.75;4880154;29;20480;-68
2022/03/05 09:36:52;;;;;;;5.82;2.28;;;;;;;2.10;47.07;99335.84;4874904;29;20485;-69
2022/03/05 09:39:17;;;;;;;3.60;2.38;;;;;;;2.13;47.20;99342.75;4891808;29;20567;-66
2022/03/05 09:41:42;;;;;;;5.03;2.50;;;;;;;2.03;47.04;99336.16;4877433;29;20047;-67
2022/03/05 09:44:07;;;;;;;5.25;2.63;;;;;;;1.93;47.48;99340.94;4880214;29;20412;-67
2022/03/05 09:46:33;;;;;;;8.80;2.67;;;;;;;1.79;47.53;99353.81;4877367;29;20563;-68
2022/03/05 09:48:59;;;;;;;5.10;2.88;;;;;;;1.73;47.78;99344.38;4872729;29;20054;-68
2022/03/05 09:51:24;;;;;;;3.67;2.97;;;;;;;1.62;47.99;99351.84;4861631;29;20071;-67
2022/03/05 09:53:53;;;;;;;4.47;2.63;;;;;;;1.64;48.22;99351.78;4861584;29;20515;-67
2022/03/05 09:56:18;;;;;;;2.65;1.95;;;;;;;1.64;47.76;99355.25;4875466;29;20160;-67
2022/03/05 09:58:43;;;;;;;2.70;1.85;;;;;;;1.59;47.88;99356.34;4879926;29;20229;-68
2022/03/05 10:01:07;;;;;;;3.65;2.50;;;;;;;1.51;47.38;99369.78;4872619;29;20135;-67
2022/03/05 10:03:49;;;;;;;3.55;2.25;;;;;;;1.50;48.08;99365.44;4861668;29;20047;-66
2022/03/05 10:06:24;;;;;;;3.10;2.17;;;;;;;1.58;48.18;99378.31;4877399;29;20052;-67
2022/03/05 10:08:55;;;;;;;7.28;2.75;;;;;;;1.62;47.36;99357.09;4879740;29;20044;-67
2022/03/05 10:11:20;;;;;;;5.03;2.10;;;;;;;1.63;47.89;99361.44;4878199;29;20487;-64
2022/03/05 10:13:45;;;;;;;2.15;1.92;;;;;;;1.68;47.48;99364.75;4878445;29;20514;-67
2022/03/05 10:16:25;;;;;;;2.83;2.15;;;;;;;1.72;47.75;99353.19;4878464;29;20047;-66
2022/03/05 10:18:50;;;;;;;2.28;1.77;;;;;;;1.59;47.82;99361.59;4861206;29;20041;-67
2022/03/05 10:21:16;;;;;;;3.85;2.38;;;;;;;1.53;47.85;99380.25;4861344;29;20192;-66
2022/03/05 10:23:47;;;;;;;4.45;2.40;;;;;;;1.48;48.13;99384.81;4875508;29;20107;-65
2022/03/05 10:26:12;;;;;;;6.22;2.80;;;;;;;1.49;48.28;99387.38;4910537;29;20405;-65
2022/03/05 10:28:38;;;;;;;5.80;1.75;;;;;;;1.42;48.43;99378.91;4880236;29;20467;-64
2022/03/05 10:31:12;;;;;;;3.00;2.30;;;;;;;1.41;48.41;99373.69;4880099;29;20048;-66
2022/03/05 10:33:40;;;;;;;6.38;2.38;;;;;;;1.31;48.73;99375.81;4878595;29;20044;-65
2022/03/05 10:36:18;;;;;;;15.63;3.13;;;;;;;1.32;48.63;99368.81;4879913;29;20052;-67
2022/03/05 10:38:45;;;;;;;4.90;3.20;;;;;;;1.30;48.65;99381.13;4878848;29;20075;-65
2022/03/05 10:41:11;;;;;;;6.35;2.47;;;;;;;1.27;48.86;99370.75;4878530;29;20102;-65
2022/03/05 10:43:35;;;;;;;4.40;2.53;;;;;;;1.26;48.95;99374.28;4862861;29;20477;-66
2022/03/05 10:46:00;;;;;;;5.18;2.75;;;;;;;1.27;49.03;99378.63;4878313;29;20508;-67
2022/03/05 10:48:30;;;;;;;3.33;2.25;;;;;;;1.31;49.19;99372.34;4862389;29;20134;-67
2022/03/05 10:51:01;;;;;;;8.18;2.67;;;;;;;1.32;49.00;99374.06;4877567;29;20044;-66
2022/03/05 10:53:36;;;;;;;4.47;3.03;;;;;;;1.31;48.95;99382.84;4877737;29;20048;-65
2022/03/05 10:56:32;;;;;;;6.82;2.35;;;;;;;1.19;49.26;99380.69;4881307;29;20060;-65
2022/03/05 10:59:05;;;;;;;3.60;2.60;;;;;;;1.08;49.47;99381.94;4883811;29;20518;-65
2022/03/05 11:01:31;;;;;;;4.43;2.40;;;;;;;1.06;49.66;99377.66;4882507;29;20040;-65
2022/03/05 11:03:57;;;;;;;6.35;2.28;;;;;;;1.07;49.62;99368.88;4882577;29;20471;-66
2022/03/05 11:06:23;;;;;;;4.30;2.47;;;;;;;1.12;49.68;99373.97;4883487;29;20570;-67
2022/03/05 11:08:48;;;;;;;4.72;3.08;;;;;;;1.17;49.57;99375.47;4884264;29;20075;-67
2022/03/05 11:11:17;;;;;;;6.25;2.90;;;;;;;1.23;50.09;99382.28;4884357;29;20047;-67
2022/03/05 11:13:43;;;;;;;6.32;2.75;;;;;;;1.31;49.87;99378.44;4885752;29;20054;-66
2022/03/05 11:16:09;;;;;;;5.82;2.40;;;;;;;1.48;49.78;99372.53;4884659;29;20052;-66
2022/03/05 11:18:34;;;;;;;7.25;2.00;;;;;;;1.59;49.63;99377.38;4884086;29;20442;-72
2022/03/05 11:21:00;;;;;;;5.72;2.00;;;;;;;1.69;49.12;99370.84;4884474;29;20511;-72
2022/03/05 11:23:25;;;;;;;6.65;2.90;;;;;;;1.73;49.00;99375.06;4886316;29;20399;-72
2022/03/05 11:25:50;;;;;;;3.30;2.13;;;;;;;1.71;49.10;99375.09;4882934;29;20717;-74
2022/03/05 11:28:20;;;;;;;5.72;2.42;;;;;;;1.87;49.31;99378.00;4883521;29;20105;-74
2022/03/05 11:30:45;;;;;;;2.45;1.90;;;;;;;2.03;48.65;99370.34;4883713;29;20058;-73
2022/03/05 11:33:21;;;;;;;4.03;2.78;;;;;;;2.23;48.66;99369.50;4883431;29;20096;-73
2022/03/05 11:35:45;;;;;;;4.38;2.55;;;;;;;2.24;47.85;99372.09;4882130;29;20470;-74